createdAt,value
2019-04-11T00:01:56.709Z,28.40
2019-04-11T00:04:28.388Z,28.30
2019-04-11T00:07:00.318Z,28.30
2019-04-11T00:09:32.550Z,28.40
2019-04-11T00:12:06.341Z,28.40
2019-04-11T00:14:42.190Z,28.50
2019-04-11T00:17:21.625Z,28.50
2019-04-11T00:19:48.782Z,28.40
2019-04-11T00:22:21.521Z,28.50
2019-04-11T00:24:55.431Z,28.50
2019-04-11T00:27:27.107Z,28.50
2019-04-11T00:30:00.367Z,28.60
2019-04-11T00:32:33.756Z,28.50
2019-04-11T00:35:07.040Z,28.60
2019-04-11T00:37:38.886Z,28.80
2019-04-11T00:40:15.225Z,28.70
2019-04-11T00:42:47.133Z,28.80
2019-04-11T00:45:19.143Z,28.80
2019-04-11T00:47:50.861Z,28.80
2019-04-11T00:50:23.241Z,29.00
2019-04-11T00:52:56.426Z,28.80
2019-04-11T00:55:29.267Z,28.90
2019-04-11T00:58:01.397Z,29.00
2019-04-11T01:00:33.365Z,29.00
2019-04-11T01:03:06.396Z,29.00
2019-04-11T01:05:39.519Z,29.10
2019-04-11T01:08:11.495Z,29.10
2019-04-11T01:10:43.574Z,29.10
2019-04-11T01:13:18.370Z,29.10
2019-04-11T01:15:57.652Z,29.20
2019-04-11T01:18:29.885Z,29.20
2019-04-11T01:21:04.562Z,29.30
2019-04-11T01:23:37.325Z,29.30
2019-04-11T01:26:10.882Z,29.40
2019-04-11T01:28:47.333Z,29.40
2019-04-11T01:31:21.816Z,29.40
2019-04-11T01:33:56.054Z,29.40
2019-04-11T01:36:31.145Z,29.50
2019-04-11T01:39:35.078Z,29.70
2019-04-11T01:42:09.159Z,29.60
2019-04-11T01:44:43.267Z,29.40
2019-04-11T01:47:20.472Z,29.60
2019-04-11T01:49:56.603Z,29.60
2019-04-11T01:52:28.567Z,29.60
2019-04-11T01:55:00.443Z,29.70
2019-04-11T01:57:36.140Z,29.80
2019-04-11T02:00:12.214Z,29.80
2019-04-11T02:02:55.298Z,29.90
2019-04-11T02:05:31.201Z,29.80
2019-04-11T02:08:02.922Z,29.90
2019-04-11T02:10:37.049Z,29.80
2019-04-11T02:13:09.919Z,29.90
2019-04-11T02:15:41.624Z,30.00
2019-04-11T02:18:13.269Z,30.00
2019-04-11T02:20:45.259Z,30.10
2019-04-11T02:23:21.877Z,30.10
2019-04-11T02:26:14.718Z,30.10
2019-04-11T02:28:46.699Z,30.30
2019-04-11T02:31:22.856Z,30.20
2019-04-11T02:33:55.335Z,30.10
2019-04-11T02:36:29.518Z,30.20
2019-04-11T02:39:12.266Z,30.40
2019-04-11T02:41:40.124Z,30.60
2019-04-11T02:44:31.998Z,30.30
2019-04-11T02:46:58.148Z,30.40
2019-04-11T02:49:23.680Z,30.50
2019-04-11T02:51:56.523Z,30.40
2019-04-11T02:54:28.429Z,31.40
2019-04-11T02:57:09.575Z,30.60
2019-04-11T02:59:44.487Z,30.70
2019-04-11T03:02:19.261Z,30.70
2019-04-11T03:04:55.635Z,30.80
2019-04-11T03:07:29.890Z,30.80
2019-04-11T03:10:03.159Z,30.80
2019-04-11T03:12:38.127Z,30.90
2019-04-11T03:15:28.874Z,31.00
2019-04-11T03:17:45.996Z,31.10
2019-04-11T03:20:26.378Z,31.00
2019-04-11T03:22:56.702Z,31.10
2019-04-11T03:25:24.692Z,31.10
2019-04-11T03:27:58.986Z,31.20
2019-04-11T03:30:48.933Z,31.40
2019-04-11T03:38:38.490Z,31.40
2019-04-11T03:41:08.732Z,31.80
2019-04-11T03:43:30.201Z,32.20
2019-04-11T03:46:15.984Z,31.60
2019-04-11T03:48:40.515Z,31.70
2019-04-11T03:51:01.837Z,32.30
2019-04-11T03:53:34.820Z,31.80
2019-04-11T03:56:07.750Z,31.60
2019-04-11T03:58:39.829Z,32.20
2019-04-11T04:01:14.058Z,31.80
2019-04-11T04:03:47.499Z,31.80
2019-04-11T04:06:21.062Z,31.90
2019-04-11T04:08:54.872Z,31.90
2019-04-11T04:11:27.840Z,31.90
2019-04-11T04:14:10.492Z,32.10
2019-04-11T04:17:03.920Z,32.10
2019-04-11T04:19:51.776Z,32.00
2019-04-11T04:22:31.448Z,32.00
2019-04-11T04:25:04.353Z,32.20
2019-04-11T04:27:36.113Z,32.20
2019-04-11T04:30:09.165Z,32.20
2019-04-11T04:32:42.899Z,32.30
2019-04-11T04:35:19.753Z,32.40
2019-04-11T04:37:51.853Z,32.40
2019-04-11T04:40:42.240Z,32.40
2019-04-11T04:43:01.242Z,32.70
2019-04-11T04:45:54.982Z,32.70
2019-04-11T04:48:11.193Z,32.60
2019-04-11T04:50:39.448Z,32.60
2019-04-11T04:53:11.653Z,32.70
2019-04-11T04:55:43.680Z,32.80
2019-04-11T04:58:18.006Z,33.00
2019-04-11T05:00:52.033Z,32.90
2019-04-11T05:03:24.624Z,33.00
2019-04-11T05:05:58.357Z,33.00
2019-04-11T05:08:30.572Z,33.10
2019-04-11T05:11:04.512Z,33.20
2019-04-11T05:13:36.744Z,33.20
2019-04-11T05:16:17.160Z,33.30
2019-04-11T05:18:42.435Z,33.40
2019-04-11T05:21:14.209Z,33.60
2019-04-11T05:23:46.348Z,33.40
2019-04-11T05:26:18.031Z,33.50
2019-04-11T05:28:50.772Z,33.50
2019-04-11T05:31:22.779Z,33.60
2019-04-11T05:33:54.342Z,33.60
2019-04-11T05:36:25.989Z,33.70
2019-04-11T05:38:58.252Z,33.70
2019-04-11T05:41:31.358Z,33.60
2019-04-11T05:44:07.673Z,33.80
2019-04-11T05:46:49.077Z,33.80
2019-04-11T05:49:24.698Z,33.80
2019-04-11T05:52:00.410Z,33.80
2019-04-11T05:54:41.019Z,33.80
2019-04-11T05:57:13.275Z,33.90
2019-04-11T05:59:49.934Z,34.00
2019-04-11T06:02:49.213Z,34.60
2019-04-11T06:05:59.799Z,34.10
2019-04-11T06:08:30.268Z,34.10
2019-04-11T06:11:19.304Z,34.00
2019-04-11T06:14:13.047Z,34.30
2019-04-11T06:16:52.222Z,34.20
2019-04-11T06:19:43.778Z,34.30
2019-04-11T06:22:15.548Z,34.40
2019-04-11T06:25:30.885Z,34.30
2019-04-11T06:28:13.914Z,34.40
2019-04-11T06:31:04.844Z,37.60
2019-04-11T06:33:54.044Z,36.20
2019-04-11T06:36:50.258Z,35.80
2019-04-11T06:39:31.503Z,36.10
2019-04-11T06:42:08.699Z,35.20
2019-04-11T06:45:09.349Z,35.10
2019-04-11T06:48:13.542Z,35.20
2019-04-11T06:50:55.803Z,35.10
2019-04-11T06:53:34.422Z,35.00
2019-04-11T06:56:17.339Z,34.90
2019-04-11T06:58:54.141Z,35.00
2019-04-11T07:01:30.080Z,34.90
2019-04-11T07:04:09.182Z,34.80
2019-04-11T07:06:42.602Z,34.90
2019-04-11T07:09:34.898Z,35.00
2019-04-11T07:12:10.514Z,34.70
2019-04-11T07:14:51.166Z,34.90
2019-04-11T07:17:40.514Z,34.90
2019-04-11T07:20:43.684Z,34.80
2019-04-11T07:23:33.140Z,34.80
2019-04-11T07:26:27.358Z,35.00
2019-04-11T07:29:24.211Z,34.70
2019-04-11T07:32:17.855Z,34.70
2019-04-11T07:35:19.377Z,35.20
2019-04-11T07:37:53.336Z,35.70
2019-04-11T07:40:43.092Z,35.40
2019-04-11T07:43:33.516Z,35.30
2019-04-11T07:46:27.377Z,35.20
2019-04-11T07:49:10.047Z,35.00
2019-04-11T07:52:04.705Z,35.00
2019-04-11T07:54:36.978Z,35.00
2019-04-11T07:57:19.316Z,35.00
2019-04-11T08:00:09.476Z,34.80
2019-04-11T08:03:19.196Z,34.80
2019-04-11T08:06:09.590Z,34.70
2019-04-11T08:09:05.733Z,34.60
2019-04-11T08:12:02.688Z,34.90
2019-04-11T08:14:52.860Z,34.70
2019-04-11T08:17:35.519Z,33.80
2019-04-11T08:20:33.271Z,33.70
2019-04-11T08:23:07.593Z,33.70
2019-04-11T08:25:57.748Z,33.60
2019-04-11T08:28:29.491Z,33.60
2019-04-11T08:31:26.454Z,33.60
2019-04-11T08:34:04.902Z,33.60
2019-04-11T08:37:01.759Z,33.50
2019-04-11T08:39:37.706Z,33.40
2019-04-11T08:42:33.650Z,33.40
2019-04-11T08:45:10.686Z,33.40
2019-04-11T08:47:52.657Z,33.30
2019-04-11T08:50:30.482Z,32.80
2019-04-11T08:53:32.963Z,32.70
2019-04-11T08:56:07.543Z,32.90
2019-04-11T08:58:55.122Z,33.70
2019-04-11T09:01:27.764Z,32.90
2019-04-11T09:04:32.341Z,32.90
2019-04-11T09:07:05.189Z,32.90
2019-04-11T09:10:09.444Z,32.90
2019-04-11T09:12:46.831Z,32.80
2019-04-11T09:15:46.309Z,32.50
2019-04-11T09:18:21.809Z,32.70
2019-04-11T09:21:30.357Z,32.60
2019-04-11T09:24:03.673Z,32.40
2019-04-11T09:27:12.781Z,32.30
2019-04-11T09:29:48.555Z,31.80
2019-04-11T09:32:40.667Z,32.00
2019-04-11T09:35:26.979Z,31.40
2019-04-11T09:38:02.283Z,31.60
2019-04-11T09:40:39.750Z,31.70
2019-04-11T09:43:22.645Z,31.70
2019-04-11T09:46:14.449Z,31.50
2019-04-11T09:49:23.321Z,31.50
2019-04-11T09:52:07.385Z,31.60
2019-04-11T09:55:01.889Z,31.50
2019-04-11T09:57:42.148Z,31.80
2019-04-11T10:00:36.750Z,31.80
2019-04-11T10:03:17.581Z,31.30
2019-04-11T10:06:09.690Z,32.30
2019-04-11T10:08:49.215Z,31.80
2019-04-11T10:11:55.204Z,32.40
2019-04-11T10:14:29.423Z,32.60
2019-04-11T10:17:22.308Z,32.00
2019-04-11T10:19:57.336Z,30.70
2019-04-11T10:22:48.303Z,30.00
2019-04-11T10:25:25.535Z,30.00
2019-04-11T10:28:22.348Z,30.80
2019-04-11T10:31:14.672Z,30.30
2019-04-11T10:34:11.205Z,30.70
2019-04-11T10:36:59.200Z,30.00
2019-04-11T10:40:00.095Z,29.50
2019-04-11T10:42:34.981Z,29.40
2019-04-11T10:45:30.982Z,29.40
2019-04-11T10:48:09.627Z,28.90
2019-04-11T10:51:12.965Z,29.20
2019-04-11T10:53:44.886Z,29.10
2019-04-11T10:56:37.694Z,28.70
2019-04-11T10:59:09.394Z,28.00
2019-04-11T11:02:00.305Z,27.30
2019-04-11T11:04:38.908Z,26.70
2019-04-11T11:07:16.329Z,26.20
2019-04-11T11:10:03.156Z,25.80
2019-04-11T11:12:47.865Z,26.00
2019-04-11T11:15:23.286Z,26.50
2019-04-11T11:18:48.034Z,27.20
2019-04-11T11:21:11.779Z,27.50
2019-04-11T11:24:06.293Z,27.80
2019-04-11T11:26:36.361Z,27.10
2019-04-11T11:29:27.099Z,26.70
2019-04-11T11:32:05.163Z,26.30
2019-04-11T11:34:56.999Z,26.20
2019-04-11T11:37:37.512Z,26.20
2019-04-11T11:40:32.153Z,26.10
2019-04-11T11:43:33.180Z,25.90
2019-04-11T11:46:12.702Z,26.20
2019-04-11T11:48:49.962Z,25.70
2019-04-11T11:51:43.703Z,25.80
2019-04-11T11:54:24.043Z,25.10
2019-04-11T11:57:00.220Z,24.30
2019-04-11T11:59:41.311Z,23.70
2019-04-11T12:02:21.107Z,23.30
2019-04-11T12:05:26.784Z,23.10
2019-04-11T12:08:18.183Z,23.70
2019-04-11T12:11:00.406Z,24.30
2019-04-11T12:13:51.710Z,24.70
2019-04-11T12:16:43.827Z,24.70
2019-04-11T12:19:24.763Z,24.80
2019-04-11T12:21:57.519Z,24.80
2019-04-11T12:24:43.005Z,24.50
2019-04-11T12:27:33.576Z,24.50
2019-04-11T12:30:38.418Z,24.60
2019-04-11T12:33:35.546Z,24.20
2019-04-11T12:36:14.645Z,24.00
2019-04-11T12:39:08.442Z,23.60
2019-04-11T12:42:13.609Z,23.30
2019-04-11T12:45:00.216Z,23.00
2019-04-11T12:47:41.684Z,22.50
2019-04-11T12:50:33.011Z,22.60
2019-04-11T12:53:18.979Z,22.10
2019-04-11T12:56:09.018Z,22.00
2019-04-11T12:58:44.043Z,22.10
2019-04-11T13:01:34.214Z,21.90
2019-04-11T13:04:24.113Z,21.80
2019-04-11T13:07:21.100Z,21.50
2019-04-11T13:10:11.742Z,20.70
2019-04-11T13:13:14.859Z,20.30
2019-04-11T13:15:54.532Z,20.40
2019-04-11T13:19:04.021Z,20.70
2019-04-11T13:21:44.160Z,20.80
2019-04-11T13:24:34.361Z,20.50
2019-04-11T13:27:34.027Z,20.30
2019-04-11T13:30:45.761Z,20.10
2019-04-11T13:33:24.804Z,20.10
2019-04-11T13:36:16.201Z,18.80
2019-04-11T13:38:52.472Z,19.40
2019-04-11T13:42:04.750Z,19.10
2019-04-11T13:44:38.785Z,19.10
2019-04-11T13:47:28.500Z,19.20
2019-04-11T13:50:16.121Z,19.20
2019-04-11T13:53:09.084Z,19.20
2019-04-11T13:55:44.142Z,19.20
2019-04-11T13:58:34.826Z,19.10
2019-04-11T14:01:12.918Z,19.20
2019-04-11T14:04:12.457Z,19.70
2019-04-11T14:06:44.275Z,19.50
2019-04-11T14:09:32.960Z,18.80
2019-04-11T14:12:09.949Z,18.70
2019-04-11T14:15:11.806Z,18.70
2019-04-11T14:18:05.035Z,18.70
2019-04-11T14:20:46.370Z,18.70
2019-04-11T14:23:37.018Z,18.90
2019-04-11T14:26:25.527Z,18.90
2019-04-11T14:29:00.829Z,19.10
2019-04-11T14:31:48.478Z,19.20
2019-04-11T14:34:38.046Z,18.90
2019-04-11T14:37:38.042Z,18.70
2019-04-11T14:40:11.407Z,18.80
2019-04-11T14:43:04.473Z,19.00
2019-04-11T14:45:56.569Z,19.20
2019-04-11T14:48:40.097Z,19.40
2019-04-11T14:51:37.638Z,19.20
2019-04-11T14:54:17.249Z,19.10
2019-04-11T14:57:02.477Z,19.00
2019-04-11T14:59:38.416Z,19.00
2019-04-11T15:02:31.888Z,19.10
2019-04-11T15:05:14.451Z,19.10
2019-04-11T15:07:46.830Z,19.10
2019-04-11T15:10:47.939Z,19.10
2019-04-11T15:13:18.653Z,19.00
2019-04-11T15:16:10.853Z,19.10
2019-04-11T15:18:54.116Z,18.70
2019-04-11T15:21:56.751Z,19.20
2019-04-11T15:24:28.474Z,19.20
2019-04-11T15:27:31.277Z,19.10
2019-04-11T15:30:06.091Z,19.10
2019-04-11T15:32:56.794Z,19.10
2019-04-11T15:35:28.479Z,19.10
2019-04-11T15:38:17.734Z,19.10
2019-04-11T15:40:53.081Z,19.20
2019-04-11T15:43:43.689Z,19.00
2019-04-11T15:46:26.651Z,19.10
2019-04-11T15:49:24.689Z,19.20
2019-04-11T15:51:57.110Z,19.20
2019-04-11T15:54:47.701Z,19.20
2019-04-11T15:57:32.770Z,19.20
2019-04-11T16:00:28.262Z,19.30
2019-04-11T16:03:08.331Z,19.50
2019-04-11T16:06:01.618Z,19.60
2019-04-11T16:08:43.542Z,19.80
2019-04-11T16:11:33.413Z,19.80
2019-04-11T16:14:17.751Z,19.80
2019-04-11T16:17:13.742Z,19.80
2019-04-11T16:19:49.553Z,20.30
2019-04-11T16:22:43.362Z,19.70
2019-04-11T16:25:17.321Z,19.70
2019-04-11T16:28:08.255Z,19.60
2019-04-11T16:30:42.398Z,19.60
2019-04-11T16:33:33.292Z,19.70
2019-04-11T16:36:27.822Z,19.70
2019-04-11T16:39:19.537Z,19.70
2019-04-11T16:41:56.246Z,19.70
2019-04-11T16:44:46.285Z,19.70
2019-04-11T16:47:49.200Z,19.80
2019-04-11T16:50:20.967Z,19.80
2019-04-11T16:52:52.723Z,19.80
2019-04-11T16:55:24.524Z,20.00
2019-04-11T16:57:56.388Z,20.00
2019-04-11T17:00:28.096Z,20.00
2019-04-11T17:03:01.595Z,20.10
2019-04-11T17:05:33.400Z,20.10
2019-04-11T17:08:26.885Z,20.20
2019-04-11T17:11:18.748Z,20.20
2019-04-11T17:13:50.031Z,20.70
2019-04-11T17:16:22.377Z,20.20
2019-04-11T17:18:55.693Z,20.30
2019-04-11T17:21:27.569Z,20.30
2019-04-11T17:23:59.328Z,20.30
2019-04-11T17:26:31.160Z,20.30
2019-04-11T17:29:02.861Z,20.40
2019-04-11T17:31:35.016Z,20.40
2019-04-11T17:34:06.828Z,20.40
2019-04-11T17:36:39.705Z,20.40
2019-04-11T17:39:11.686Z,20.50
2019-04-11T17:41:43.483Z,20.60
2019-04-11T17:44:15.244Z,20.60
2019-04-11T17:46:47.099Z,20.70
2019-04-11T17:49:18.778Z,20.60
2019-04-11T17:51:56.135Z,20.70
2019-04-11T17:54:25.009Z,20.60
2019-04-11T17:56:58.983Z,20.60
2019-04-11T17:59:30.933Z,20.80
2019-04-11T18:02:04.635Z,20.80
2019-04-11T18:04:37.614Z,20.60
2019-04-11T18:07:09.430Z,20.80
2019-04-11T18:09:41.159Z,20.90
2019-04-11T18:12:13.009Z,20.90
2019-04-11T18:14:44.880Z,20.90
2019-04-11T18:17:16.713Z,21.00
2019-04-11T18:19:48.716Z,21.00
2019-04-11T18:22:20.504Z,21.10
2019-04-11T18:24:54.055Z,21.00
2019-04-11T18:27:26.010Z,21.10
2019-04-11T18:29:58.000Z,21.10
2019-04-11T18:32:29.901Z,21.10
2019-04-11T18:35:02.420Z,21.20
2019-04-11T18:37:34.683Z,21.20
2019-04-11T18:40:10.361Z,21.20
2019-04-11T18:42:42.164Z,21.30
2019-04-11T18:45:15.224Z,21.20
2019-04-11T18:47:47.265Z,21.30
2019-04-11T18:50:22.920Z,21.30
2019-04-11T18:52:59.159Z,21.30
2019-04-11T18:55:30.219Z,21.40
2019-04-11T18:58:04.593Z,21.40
2019-04-11T19:00:38.086Z,21.40
2019-04-11T19:03:10.290Z,22.00
2019-04-11T19:05:43.591Z,21.60
2019-04-11T19:08:15.653Z,21.60
2019-04-11T19:10:47.585Z,21.70
2019-04-11T19:13:19.597Z,21.80
2019-04-11T19:15:51.396Z,21.80
2019-04-11T19:18:23.205Z,21.70
2019-04-11T19:20:55.312Z,21.80
2019-04-11T19:23:27.118Z,21.80
2019-04-11T19:25:58.854Z,21.90
2019-04-11T19:28:30.636Z,21.90
2019-04-11T19:31:02.432Z,22.00
2019-04-11T19:33:34.839Z,22.00
2019-04-11T19:36:06.670Z,22.00
2019-04-11T19:38:43.063Z,22.00
2019-04-11T19:41:12.281Z,22.00
2019-04-11T19:43:44.099Z,22.10
2019-04-11T19:46:19.888Z,22.10
2019-04-11T19:48:49.574Z,22.10
2019-04-11T19:51:22.523Z,22.60
2019-04-11T19:53:54.466Z,22.10
2019-04-11T19:56:33.680Z,22.10
2019-04-11T19:59:05.676Z,22.30
2019-04-11T20:01:37.512Z,22.10
2019-04-11T20:04:10.346Z,22.20
2019-04-11T20:06:42.357Z,22.20
2019-04-11T20:09:14.479Z,22.20
2019-04-11T20:11:46.358Z,22.20
2019-04-11T20:14:18.293Z,22.30
2019-04-11T20:16:52.000Z,22.30
2019-04-11T20:19:27.145Z,22.40
2019-04-11T20:21:57.298Z,22.40
2019-04-11T20:24:29.179Z,22.40
2019-04-11T20:27:01.159Z,22.40
2019-04-11T20:29:33.146Z,22.40
2019-04-11T20:32:04.919Z,22.50
2019-04-11T20:34:38.542Z,22.60
2019-04-11T20:37:13.156Z,22.50
2019-04-11T20:39:46.756Z,22.50
2019-04-11T20:42:18.647Z,22.60
2019-04-11T20:44:50.986Z,22.60
2019-04-11T20:47:22.732Z,22.70
2019-04-11T20:49:54.489Z,22.80
2019-04-11T20:52:27.410Z,22.80
2019-04-11T20:54:59.131Z,22.80
2019-04-11T20:57:31.027Z,22.80
2019-04-11T21:00:05.534Z,22.90
2019-04-11T21:02:37.415Z,22.90
2019-04-11T21:05:09.367Z,22.90
2019-04-11T21:07:42.673Z,22.90
2019-04-11T21:10:14.669Z,22.90
2019-04-11T21:12:47.672Z,23.00
2019-04-11T21:15:19.603Z,23.70
2019-04-11T21:17:56.071Z,23.70
2019-04-11T21:20:28.447Z,23.70
2019-04-11T21:23:01.408Z,23.80
2019-04-11T21:25:35.648Z,23.80
2019-04-11T21:28:07.548Z,23.90
2019-04-11T21:30:39.521Z,23.90
2019-04-11T21:33:11.322Z,23.90
2019-04-11T21:35:45.114Z,23.90
2019-04-11T21:38:16.885Z,24.00
2019-04-11T21:40:48.786Z,24.00
2019-04-11T21:43:21.764Z,24.00
2019-04-11T21:45:54.943Z,24.00
2019-04-11T21:48:26.897Z,24.00
2019-04-11T21:50:59.167Z,24.10
2019-04-11T21:53:36.827Z,24.20
2019-04-11T21:56:05.860Z,24.20
2019-04-11T21:58:38.756Z,24.20
2019-04-11T22:01:14.923Z,24.20
2019-04-11T22:03:47.494Z,24.30
2019-04-11T22:06:20.531Z,24.30
2019-04-11T22:08:53.787Z,24.40
2019-04-11T22:11:25.806Z,24.50
2019-04-11T22:13:57.762Z,24.40
2019-04-11T22:16:29.527Z,24.50
2019-04-11T22:19:01.429Z,25.00
2019-04-11T22:21:33.464Z,24.60
2019-04-11T22:24:05.474Z,24.60
2019-04-11T22:26:38.253Z,24.80
2019-04-11T22:29:11.622Z,24.90
2019-04-11T22:31:43.501Z,24.80
2019-04-11T22:34:33.991Z,24.90
2019-04-11T22:37:06.384Z,24.90
2019-04-11T22:39:42.548Z,24.90
2019-04-11T22:42:15.510Z,25.00
2019-04-11T22:44:47.356Z,25.10
2019-04-11T22:47:19.142Z,25.10
2019-04-11T22:49:50.932Z,25.20
2019-04-11T22:52:24.256Z,25.20
2019-04-11T22:54:56.143Z,25.30
2019-04-11T22:57:27.969Z,25.30
2019-04-11T22:59:59.830Z,25.40
2019-04-11T23:02:51.903Z,25.40
2019-04-11T23:05:23.999Z,25.40
2019-04-11T23:07:55.898Z,25.40
2019-04-11T23:10:29.389Z,25.40
2019-04-11T23:13:01.219Z,25.40
2019-04-11T23:15:33.036Z,25.50
2019-04-11T23:18:04.844Z,25.50
2019-04-11T23:20:36.745Z,26.10
2019-04-11T23:23:08.490Z,25.60
2019-04-11T23:25:40.172Z,25.60
2019-04-11T23:28:15.601Z,25.60
2019-04-11T23:30:49.529Z,25.70
2019-04-11T23:33:21.423Z,25.70
2019-04-11T23:35:52.663Z,25.70
2019-04-11T23:38:24.591Z,25.80
2019-04-11T23:40:56.440Z,25.90
2019-04-11T23:43:28.167Z,25.80
2019-04-11T23:46:01.192Z,25.90
2019-04-11T23:48:33.007Z,25.90
2019-04-11T23:51:04.687Z,26.10
2019-04-11T23:53:36.450Z,26.10
2019-04-11T23:56:09.212Z,26.00
2019-04-11T23:58:41.007Z,26.00
